createdAt,value
2019-05-18T00:00:10.301Z,17.83
2019-05-18T00:02:39.685Z,15.17
2019-05-18T00:05:10.875Z,14.87
2019-05-18T00:07:40.254Z,15.17
2019-05-18T00:10:11.050Z,15.37
2019-05-18T00:12:40.515Z,16.47
2019-05-18T00:15:10.923Z,15.27
2019-05-18T00:17:40.334Z,15.57
2019-05-18T00:20:10.622Z,14.00
2019-05-18T00:22:40.069Z,15.53
2019-05-18T00:25:10.191Z,14.43
2019-05-18T00:27:39.574Z,16.37
2019-05-18T00:30:10.073Z,17.00
2019-05-18T00:32:39.457Z,16.17
2019-05-18T00:35:09.148Z,13.80
2019-05-18T00:37:38.528Z,17.10
2019-05-18T00:40:08.814Z,14.27
2019-05-18T00:42:38.207Z,16.27
2019-05-18T00:45:08.885Z,17.07
2019-05-18T00:47:41.913Z,15.97
2019-05-18T00:50:09.983Z,18.00
2019-05-18T00:52:39.366Z,17.50
2019-05-18T00:55:10.361Z,14.83
2019-05-18T00:57:39.746Z,14.90
2019-05-18T01:00:10.700Z,16.13
2019-05-18T01:02:40.098Z,15.80
2019-05-18T01:05:10.182Z,18.00
2019-05-18T01:07:39.558Z,19.03
2019-05-18T01:10:09.648Z,16.23
2019-05-18T01:12:39.098Z,13.60
2019-05-18T01:15:09.495Z,14.40
2019-05-18T01:17:38.876Z,15.13
2019-05-18T01:20:09.569Z,14.53
2019-05-18T01:22:38.952Z,14.50
2019-05-18T01:25:09.149Z,15.17
2019-05-18T01:27:38.533Z,15.57
2019-05-18T01:30:10.025Z,17.03
2019-05-18T01:32:39.406Z,15.70
2019-05-18T01:35:10.773Z,18.57
2019-05-18T01:37:40.149Z,15.73
2019-05-18T01:40:10.339Z,17.37
2019-05-18T01:42:39.730Z,19.10
2019-05-18T01:45:16.952Z,19.67
2019-05-18T01:47:41.344Z,18.00
2019-05-18T01:50:11.106Z,19.47
2019-05-18T01:52:40.495Z,19.27
2019-05-18T01:55:10.476Z,18.53
2019-05-18T01:57:39.867Z,16.50
2019-05-18T02:00:10.654Z,16.70
2019-05-18T02:02:40.033Z,18.93
2019-05-18T02:05:10.152Z,19.60
2019-05-18T02:07:39.543Z,19.07
2019-05-18T02:10:09.537Z,20.90
2019-05-18T02:12:38.901Z,21.07
2019-05-18T02:15:09.383Z,20.77
2019-05-18T02:17:38.776Z,20.07
2019-05-18T02:20:08.869Z,21.70
2019-05-18T02:22:38.260Z,20.57
2019-05-18T02:25:08.441Z,18.90
2019-05-18T02:27:37.828Z,18.87
2019-05-18T02:30:09.574Z,20.43
2019-05-18T02:32:38.937Z,19.30
2019-05-18T02:35:08.733Z,20.33
2019-05-18T02:37:38.130Z,19.40
2019-05-18T02:40:07.907Z,21.03
2019-05-18T02:42:37.294Z,18.03
2019-05-18T02:45:10.038Z,18.40
2019-05-18T02:47:39.423Z,17.10
2019-05-18T02:50:09.507Z,17.40
2019-05-18T02:52:38.903Z,18.83
2019-05-18T02:55:08.937Z,18.00
2019-05-18T02:57:38.381Z,18.17
2019-05-18T03:00:11.826Z,18.87
2019-05-18T03:02:41.201Z,20.00
2019-05-18T03:05:10.958Z,17.20
2019-05-18T03:07:40.349Z,21.03
2019-05-18T03:10:10.031Z,18.37
2019-05-18T03:12:39.487Z,16.50
2019-05-18T03:15:09.805Z,19.73
2019-05-18T03:17:39.230Z,16.90
2019-05-18T03:20:09.757Z,18.37
2019-05-18T03:22:39.147Z,17.27
2019-05-18T03:25:09.034Z,17.57
2019-05-18T03:27:38.425Z,18.17
2019-05-18T03:30:12.149Z,19.90
2019-05-18T03:32:41.500Z,19.33
2019-05-18T03:35:12.493Z,18.83
2019-05-18T03:37:41.857Z,19.37
2019-05-18T03:40:11.940Z,16.30
2019-05-18T03:42:41.327Z,18.17
2019-05-18T03:45:11.049Z,19.00
2019-05-18T03:47:40.431Z,18.00
2019-05-18T03:50:10.320Z,19.77
2019-05-18T03:52:39.708Z,18.70
2019-05-18T03:55:09.332Z,20.73
2019-05-18T03:57:38.706Z,19.63
2019-05-18T04:00:09.096Z,18.03
2019-05-18T04:02:38.549Z,18.93
2019-05-18T04:05:09.335Z,19.80
2019-05-18T04:07:38.719Z,19.43
2019-05-18T04:10:10.038Z,19.53
2019-05-18T04:12:39.420Z,19.10
2019-05-18T04:15:10.922Z,19.10
2019-05-18T04:17:40.308Z,18.03
2019-05-18T04:20:10.840Z,18.37
2019-05-18T04:22:40.221Z,19.27
2019-05-18T04:25:09.833Z,20.57
2019-05-18T04:27:39.248Z,20.00
2019-05-18T04:30:09.710Z,21.47
2019-05-18T04:32:39.136Z,18.70
2019-05-18T04:35:09.596Z,19.70
2019-05-18T04:37:38.998Z,17.50
2019-05-18T04:40:10.664Z,20.53
2019-05-18T04:42:40.043Z,21.87
2019-05-18T04:45:10.140Z,20.10
2019-05-18T04:47:39.512Z,20.40
2019-05-18T04:50:10.203Z,20.93
2019-05-18T04:52:39.593Z,19.33
2019-05-18T04:55:08.969Z,23.60
2019-05-18T04:57:38.358Z,18.57
2019-05-18T05:00:09.439Z,20.50
2019-05-18T05:02:38.827Z,19.27
2019-05-18T05:05:08.618Z,19.77
2019-05-18T05:07:37.999Z,21.73
2019-05-18T05:10:08.093Z,19.37
2019-05-18T05:12:37.478Z,19.10
2019-05-18T05:15:07.574Z,20.50
2019-05-18T05:17:37.398Z,20.50
2019-05-18T05:20:19.221Z,21.00
2019-05-18T05:22:38.694Z,22.07
2019-05-18T05:25:08.477Z,20.03
2019-05-18T05:27:37.905Z,20.53
2019-05-18T05:30:08.504Z,21.10
2019-05-18T05:32:37.981Z,20.77
2019-05-18T05:35:08.492Z,19.43
2019-05-18T05:37:37.954Z,19.83
2019-05-18T05:40:08.369Z,21.03
2019-05-18T05:42:37.976Z,20.73
2019-05-18T05:45:08.059Z,19.63
2019-05-18T05:47:37.446Z,18.23
2019-05-18T05:50:10.284Z,20.30
2019-05-18T05:52:39.683Z,21.60
2019-05-18T05:55:10.268Z,22.33
2019-05-18T05:57:39.649Z,23.07
2019-05-18T06:00:10.139Z,20.47
2019-05-18T06:02:39.524Z,20.23
2019-05-18T06:05:09.514Z,20.60
2019-05-18T06:07:38.897Z,21.93
2019-05-18T06:10:09.313Z,22.07
2019-05-18T06:12:38.778Z,21.70
2019-05-18T06:15:10.083Z,22.47
2019-05-18T06:17:39.468Z,22.60
2019-05-18T06:20:10.454Z,22.23
2019-05-18T06:22:39.848Z,22.20
2019-05-18T06:25:09.739Z,29.83
2019-05-18T06:27:39.129Z,24.67
2019-05-18T06:30:09.519Z,20.63
2019-05-18T06:32:38.906Z,19.13
2019-05-18T06:35:09.328Z,22.67
2019-05-18T06:37:38.720Z,23.47
2019-05-18T06:40:10.116Z,30.70
2019-05-18T06:42:39.504Z,23.13
2019-05-18T06:45:10.589Z,23.90
2019-05-18T06:47:39.980Z,23.13
2019-05-18T06:50:12.239Z,25.30
2019-05-18T06:52:41.277Z,17.77
2019-05-18T06:55:11.157Z,22.73
2019-05-18T06:57:41.350Z,22.87
2019-05-18T07:00:15.670Z,22.17
2019-05-18T07:02:45.063Z,21.47
2019-05-18T07:05:14.628Z,24.07
2019-05-18T07:07:44.016Z,24.30
2019-05-18T07:10:13.610Z,20.47
2019-05-18T07:12:43.130Z,19.07
2019-05-18T07:15:13.719Z,22.87
2019-05-18T07:17:43.109Z,23.00
2019-05-18T07:20:13.291Z,21.83
2019-05-18T07:22:42.692Z,24.20
2019-05-18T07:25:12.400Z,23.60
2019-05-18T07:27:41.781Z,24.27
2019-05-18T07:30:12.291Z,24.67
2019-05-18T07:32:41.678Z,23.23
2019-05-18T07:35:11.866Z,24.07
2019-05-18T07:37:41.253Z,25.70
2019-05-18T07:40:12.043Z,25.37
2019-05-18T07:42:41.498Z,26.07
2019-05-18T07:45:11.581Z,30.10
2019-05-18T07:47:40.959Z,28.00
2019-05-18T07:50:11.454Z,25.97
2019-05-18T07:52:41.012Z,26.40
2019-05-18T07:55:11.083Z,26.13
2019-05-18T07:57:40.479Z,23.90
2019-05-18T08:00:10.672Z,27.53
2019-05-18T08:02:40.061Z,26.57
2019-05-18T08:05:09.979Z,27.03
2019-05-18T08:07:39.443Z,27.63
2019-05-18T08:10:10.473Z,29.10
2019-05-18T08:12:39.854Z,26.10
2019-05-18T08:15:11.813Z,24.07
2019-05-18T08:17:41.788Z,22.80
2019-05-18T08:20:11.918Z,24.60
2019-05-18T08:22:41.302Z,27.53
2019-05-18T08:25:11.096Z,24.07
2019-05-18T08:27:40.507Z,24.73
2019-05-18T08:30:10.591Z,25.93
2019-05-18T08:32:39.984Z,23.33
2019-05-18T08:35:10.090Z,23.70
2019-05-18T08:37:39.488Z,25.47
2019-05-18T08:40:10.282Z,24.23
2019-05-18T08:42:39.946Z,23.63
2019-05-18T08:45:11.542Z,22.23
2019-05-18T08:47:41.899Z,22.57
2019-05-18T08:50:11.582Z,22.13
2019-05-18T08:52:40.977Z,22.43
2019-05-18T08:55:10.853Z,22.33
2019-05-18T08:57:40.240Z,26.30
2019-05-18T09:00:10.735Z,23.27
2019-05-18T09:02:40.181Z,25.20
2019-05-18T09:05:10.373Z,24.50
2019-05-18T09:07:39.766Z,20.43
2019-05-18T09:10:09.896Z,21.60
2019-05-18T09:12:40.424Z,23.73
2019-05-18T09:15:10.512Z,20.83
2019-05-18T09:17:39.902Z,20.15
2019-05-18T09:20:10.493Z,24.10
2019-05-18T09:22:39.873Z,22.65
2019-05-18T09:25:10.067Z,19.55
2019-05-18T09:27:39.469Z,19.60
2019-05-18T09:30:11.145Z,21.75
2019-05-18T09:32:40.620Z,21.82
2019-05-18T09:35:12.015Z,21.33
2019-05-18T09:37:41.395Z,18.92
2019-05-18T09:40:11.287Z,20.57
2019-05-18T09:42:40.667Z,18.57
2019-05-18T09:45:11.864Z,19.15
2019-05-18T09:47:41.247Z,16.75
2019-05-18T09:50:12.738Z,19.17
2019-05-18T09:52:45.471Z,19.77
2019-05-18T09:55:14.238Z,17.98
2019-05-18T09:57:43.728Z,19.60
2019-05-18T10:00:14.336Z,18.40
2019-05-18T10:02:43.722Z,19.00
2019-05-18T10:05:13.474Z,16.07
2019-05-18T10:07:42.893Z,16.45
2019-05-18T10:10:13.082Z,16.45
2019-05-18T10:12:42.461Z,15.40
2019-05-18T10:15:12.278Z,14.83
2019-05-18T10:17:41.677Z,12.73
2019-05-18T10:20:11.668Z,12.90
2019-05-18T10:22:53.430Z,12.00
2019-05-18T10:25:12.871Z,14.15
2019-05-18T10:27:42.253Z,16.73
2019-05-18T10:30:12.738Z,17.35
2019-05-18T10:32:42.134Z,15.30
2019-05-18T10:35:13.024Z,15.95
2019-05-18T10:37:42.630Z,16.42
2019-05-18T10:40:12.650Z,14.00
2019-05-18T10:42:42.049Z,15.23
2019-05-18T10:45:12.330Z,15.05
2019-05-18T10:47:41.715Z,13.30
2019-05-18T10:50:11.506Z,16.27
2019-05-18T10:52:41.133Z,13.53
2019-05-18T10:55:11.118Z,16.35
2019-05-18T10:57:40.509Z,17.60
2019-05-18T11:00:12.312Z,14.38
2019-05-18T11:02:41.843Z,13.32
2019-05-18T11:05:12.315Z,12.18
2019-05-18T11:07:41.836Z,12.75
2019-05-18T11:10:12.461Z,11.93
2019-05-18T11:12:41.869Z,11.73
2019-05-18T11:15:12.353Z,12.90
2019-05-18T11:17:41.906Z,13.43
2019-05-18T11:20:12.992Z,13.95
2019-05-18T11:22:42.373Z,14.15
2019-05-18T11:25:12.664Z,12.85
2019-05-18T11:27:42.119Z,13.30
2019-05-18T11:30:13.719Z,12.37
2019-05-18T11:32:43.154Z,13.22
2019-05-18T11:35:13.333Z,14.43
2019-05-18T11:37:42.732Z,13.18
2019-05-18T11:40:13.115Z,19.40
2019-05-18T11:42:42.503Z,19.37
2019-05-18T11:45:15.731Z,15.30
2019-05-18T11:47:45.288Z,16.30
2019-05-18T11:50:16.747Z,13.78
2019-05-18T11:52:46.201Z,13.43
2019-05-18T11:55:16.394Z,14.60
2019-05-18T11:57:45.771Z,18.23
2019-05-18T12:00:17.358Z,16.95
2019-05-18T12:02:46.737Z,15.43
2019-05-18T12:05:16.631Z,13.53
2019-05-18T12:07:46.009Z,11.18
2019-05-18T12:10:18.585Z,15.10
2019-05-18T12:12:50.390Z,17.48
2019-05-18T12:15:21.745Z,16.17
2019-05-18T12:17:51.135Z,17.60
2019-05-18T12:20:21.159Z,17.17
2019-05-18T12:22:50.543Z,16.02
2019-05-18T12:25:20.571Z,15.08
2019-05-18T12:27:50.042Z,13.45
2019-05-18T12:30:20.270Z,17.85
2019-05-18T12:32:49.668Z,18.37
2019-05-18T12:35:20.041Z,18.17
2019-05-18T12:37:49.460Z,18.40
2019-05-18T12:40:21.725Z,16.25
2019-05-18T12:42:51.147Z,17.77
2019-05-18T12:45:21.146Z,20.85
2019-05-18T12:47:50.540Z,16.67
2019-05-18T12:50:21.089Z,23.25
2019-05-18T12:52:50.478Z,16.95
2019-05-18T12:55:20.465Z,17.92
2019-05-18T12:57:49.875Z,17.23
2019-05-18T13:00:20.172Z,19.98
2019-05-18T13:02:49.556Z,19.82
2019-05-18T13:05:19.476Z,19.23
2019-05-18T13:07:48.858Z,18.42
2019-05-18T13:10:19.651Z,19.12
2019-05-18T13:12:49.041Z,19.23
2019-05-18T13:15:19.230Z,16.00
2019-05-18T13:17:48.610Z,19.15
2019-05-18T13:20:20.351Z,17.25
2019-05-18T13:22:49.683Z,17.05
2019-05-18T13:25:20.079Z,18.15
2019-05-18T13:27:49.470Z,18.65
2019-05-18T13:30:20.131Z,19.87
2019-05-18T13:32:49.604Z,17.57
2019-05-18T13:35:19.495Z,18.20
2019-05-18T13:37:48.879Z,18.05
2019-05-18T13:40:19.185Z,18.87
2019-05-18T13:42:48.581Z,19.65
2019-05-18T13:45:18.912Z,19.87
2019-05-18T13:47:48.258Z,20.43
2019-05-18T13:50:18.251Z,17.70
2019-05-18T13:52:47.681Z,18.35
2019-05-18T13:55:17.598Z,19.10
2019-05-18T13:57:46.984Z,19.02
2019-05-18T14:00:18.551Z,19.82
2019-05-18T14:02:48.166Z,16.82
2019-05-18T14:05:18.154Z,19.32
2019-05-18T14:07:47.567Z,16.73
2019-05-18T14:10:17.578Z,15.95
2019-05-18T14:12:46.950Z,18.70
2019-05-18T14:15:16.841Z,16.42
2019-05-18T14:17:46.593Z,15.80
2019-05-18T14:20:18.862Z,17.05
2019-05-18T14:22:48.256Z,18.10
2019-05-18T14:25:20.014Z,16.82
2019-05-18T14:27:49.523Z,18.60
2019-05-18T14:30:21.598Z,19.02
2019-05-18T14:32:50.987Z,17.90
2019-05-18T14:35:20.613Z,18.98
2019-05-18T14:37:50.003Z,16.42
2019-05-18T14:40:19.633Z,19.95
2019-05-18T14:42:49.040Z,18.82
2019-05-18T14:45:19.638Z,15.08
2019-05-18T14:47:49.022Z,19.10
2019-05-18T14:50:18.747Z,19.73
2019-05-18T14:52:48.201Z,19.07
2019-05-18T14:55:32.755Z,16.93
2019-05-18T14:57:50.872Z,17.75
2019-05-18T15:00:21.362Z,16.62
2019-05-18T15:02:50.748Z,20.43
2019-05-18T15:05:20.282Z,17.77
2019-05-18T15:07:49.677Z,16.85
2019-05-18T15:10:20.065Z,16.23
2019-05-18T15:12:49.454Z,18.52
2019-05-18T15:15:19.556Z,17.12
2019-05-18T15:17:48.953Z,18.70
2019-05-18T15:20:18.938Z,19.17
2019-05-18T15:22:48.315Z,17.87
2019-05-18T15:25:18.039Z,16.57
2019-05-18T15:27:47.431Z,16.65
2019-05-18T15:30:17.418Z,17.05
2019-05-18T15:32:46.810Z,14.68
2019-05-18T15:35:16.590Z,15.48
2019-05-18T15:37:45.994Z,14.10
2019-05-18T15:40:15.618Z,14.05
2019-05-18T15:42:45.010Z,15.58
2019-05-18T15:45:16.372Z,16.25
2019-05-18T15:47:45.824Z,14.98
2019-05-18T15:50:16.230Z,21.68
2019-05-18T15:52:45.706Z,14.33
2019-05-18T15:55:16.734Z,17.05
2019-05-18T15:57:46.126Z,13.43
2019-05-18T16:00:16.918Z,15.83
2019-05-18T16:02:46.306Z,17.40
2019-05-18T16:05:16.702Z,14.07
2019-05-18T16:07:46.082Z,13.05
2019-05-18T16:10:16.731Z,13.32
2019-05-18T16:12:46.477Z,13.28
2019-05-18T16:15:16.469Z,15.00
2019-05-18T16:17:45.858Z,14.70
2019-05-18T16:20:16.053Z,16.67
2019-05-18T16:22:45.443Z,15.00
2019-05-18T16:25:15.342Z,15.88
2019-05-18T16:27:44.725Z,15.10
2019-05-18T16:30:15.019Z,15.20
2019-05-18T16:32:44.475Z,17.87
2019-05-18T16:35:14.665Z,17.90
2019-05-18T16:37:44.053Z,18.25
2019-05-18T16:40:14.154Z,23.90
2019-05-18T16:42:46.463Z,23.75
2019-05-18T16:45:14.982Z,23.40
2019-05-18T16:47:44.350Z,27.27
2019-05-18T16:50:14.552Z,24.45
2019-05-18T16:52:43.931Z,22.58
2019-05-18T16:55:13.835Z,23.92
2019-05-18T16:57:43.197Z,23.92
2019-05-18T17:00:16.443Z,24.70
2019-05-18T17:02:45.946Z,22.52
2019-05-18T17:05:16.111Z,24.72
2019-05-18T17:07:45.499Z,25.72
2019-05-18T17:10:15.682Z,24.15
2019-05-18T17:12:45.141Z,21.45
2019-05-18T17:15:15.331Z,27.60
2019-05-18T17:17:44.714Z,26.30
2019-05-18T17:20:14.822Z,35.25
2019-05-18T17:22:44.204Z,27.73
2019-05-18T17:25:13.990Z,25.77
2019-05-18T17:27:43.376Z,29.65
2019-05-18T17:30:13.473Z,27.02
2019-05-18T17:32:42.878Z,23.92
2019-05-18T17:35:13.132Z,25.35
2019-05-18T17:37:42.539Z,24.20
2019-05-18T17:40:12.152Z,25.23
2019-05-18T17:42:41.586Z,30.43
2019-05-18T17:45:11.616Z,26.05
2019-05-18T17:47:41.007Z,29.05
2019-05-18T17:50:12.662Z,30.43
2019-05-18T17:52:42.060Z,28.60
2019-05-18T17:55:16.251Z,31.12
2019-05-18T17:57:43.853Z,29.20
2019-05-18T18:00:14.136Z,32.30
2019-05-18T18:02:43.517Z,32.03
2019-05-18T18:05:13.319Z,35.28
2019-05-18T18:07:42.697Z,34.90
2019-05-18T18:10:14.190Z,31.10
2019-05-18T18:12:43.575Z,33.98
2019-05-18T18:15:14.652Z,34.53
2019-05-18T18:17:44.033Z,35.08
2019-05-18T18:20:14.125Z,36.83
2019-05-18T18:22:43.502Z,34.27
2019-05-18T18:25:13.293Z,34.27
2019-05-18T18:27:42.703Z,32.45
2019-05-18T18:30:13.196Z,33.55
2019-05-18T18:32:42.837Z,34.10
2019-05-18T18:35:12.831Z,35.43
2019-05-18T18:37:42.215Z,36.00
2019-05-18T18:40:12.014Z,34.23
2019-05-18T18:42:41.396Z,36.73
2019-05-18T18:45:11.382Z,37.03
2019-05-18T18:47:40.762Z,39.42
2019-05-18T18:50:11.061Z,37.33
2019-05-18T18:52:40.439Z,38.17
2019-05-18T18:55:10.629Z,33.98
2019-05-18T18:57:41.981Z,36.77
2019-05-18T19:00:12.300Z,40.12
2019-05-18T19:02:41.676Z,38.50
2019-05-18T19:05:12.143Z,36.93
2019-05-18T19:07:41.525Z,40.70
2019-05-18T19:10:11.819Z,42.20
2019-05-18T19:12:41.567Z,38.90
2019-05-18T19:15:11.855Z,39.92
2019-05-18T19:17:41.241Z,39.45
2019-05-18T19:20:12.272Z,44.65
2019-05-18T19:22:41.650Z,41.37
2019-05-18T19:25:11.435Z,39.13
2019-05-18T19:27:52.708Z,39.63
2019-05-18T19:30:12.268Z,40.35
2019-05-18T19:32:41.680Z,40.65
2019-05-18T19:35:11.208Z,40.07
2019-05-18T19:37:40.556Z,37.33
2019-05-18T19:40:10.541Z,39.90
2019-05-18T19:42:40.095Z,36.80
2019-05-18T19:45:11.763Z,38.58
2019-05-18T19:47:41.146Z,41.77
2019-05-18T19:50:11.736Z,40.03
2019-05-18T19:52:41.119Z,38.42
2019-05-18T19:55:10.679Z,40.25
2019-05-18T19:57:40.030Z,42.08
2019-05-18T20:00:11.135Z,38.53
2019-05-18T20:02:40.527Z,40.03
2019-05-18T20:05:10.724Z,38.87
2019-05-18T20:07:40.100Z,40.33
2019-05-18T20:10:12.189Z,40.03
2019-05-18T20:12:41.570Z,41.43
2019-05-18T20:15:11.569Z,44.93
2019-05-18T20:17:40.957Z,38.63
2019-05-18T20:20:11.944Z,40.90
2019-05-18T20:22:41.334Z,43.73
2019-05-18T20:25:11.029Z,41.30
2019-05-18T20:27:40.415Z,42.80
2019-05-18T20:30:10.818Z,44.87
2019-05-18T20:32:40.245Z,45.40
2019-05-18T20:35:10.237Z,45.37
2019-05-18T20:37:39.586Z,47.60
2019-05-18T20:40:09.778Z,46.50
2019-05-18T20:42:39.165Z,47.17
2019-05-18T20:45:10.054Z,44.17
2019-05-18T20:47:39.433Z,53.50
2019-05-18T20:50:09.216Z,48.67
2019-05-18T20:52:38.597Z,44.47
2019-05-18T20:55:08.216Z,48.87
2019-05-18T20:57:37.608Z,48.10
2019-05-18T21:00:08.009Z,45.77
2019-05-18T21:02:37.386Z,44.23
2019-05-18T21:05:08.464Z,51.23
2019-05-18T21:07:38.028Z,45.27
2019-05-18T21:10:11.263Z,47.93
2019-05-18T21:12:40.615Z,46.27
2019-05-18T21:15:11.929Z,45.37
2019-05-18T21:17:41.302Z,46.17
2019-05-18T21:20:11.294Z,45.27
2019-05-18T21:22:40.673Z,47.03
2019-05-18T21:25:10.471Z,44.90
2019-05-18T21:27:39.844Z,49.33
2019-05-18T21:30:09.662Z,46.87
2019-05-18T21:32:39.060Z,44.40
2019-05-18T21:35:08.793Z,46.50
2019-05-18T21:37:38.180Z,45.87
2019-05-18T21:40:08.760Z,47.00
2019-05-18T21:42:38.141Z,45.20
2019-05-18T21:45:08.768Z,47.53
2019-05-18T21:47:38.150Z,44.37
2019-05-18T21:50:09.439Z,46.70
2019-05-18T21:52:41.867Z,48.80
2019-05-18T21:55:10.351Z,45.10
2019-05-18T21:57:39.723Z,43.90
2019-05-18T22:00:11.780Z,44.17
2019-05-18T22:02:41.177Z,44.40
2019-05-18T22:05:10.894Z,44.47
2019-05-18T22:07:40.276Z,44.43
2019-05-18T22:10:24.749Z,47.50
2019-05-18T22:12:41.405Z,46.93
2019-05-18T22:15:11.232Z,45.77
2019-05-18T22:17:58.365Z,46.87
2019-05-18T22:20:28.063Z,46.80
2019-05-18T22:22:57.437Z,49.70
2019-05-18T22:25:26.816Z,45.20
2019-05-18T22:27:56.202Z,45.23
2019-05-18T22:30:25.867Z,44.97
2019-05-18T22:32:55.265Z,44.40
2019-05-18T22:35:24.653Z,44.43
2019-05-18T22:37:54.166Z,45.97
2019-05-18T22:40:23.494Z,47.53
2019-05-18T22:42:52.903Z,44.10
2019-05-18T22:45:22.283Z,48.07
2019-05-18T22:47:51.671Z,47.10
2019-05-18T22:50:21.484Z,45.40
2019-05-18T22:52:50.902Z,50.37
2019-05-18T22:55:20.358Z,48.37
2019-05-18T22:57:49.732Z,44.43
2019-05-18T23:00:20.357Z,44.10
2019-05-18T23:02:49.918Z,48.07
2019-05-18T23:05:19.351Z,47.13
2019-05-18T23:07:48.735Z,46.57
2019-05-18T23:10:18.629Z,41.20
2019-05-18T23:12:48.014Z,43.53
2019-05-18T23:15:17.828Z,43.67
2019-05-18T23:17:47.216Z,48.07
2019-05-18T23:20:17.275Z,50.33
2019-05-18T23:22:46.706Z,48.03
2019-05-18T23:25:16.398Z,45.37
2019-05-18T23:27:45.784Z,44.60
2019-05-18T23:30:15.430Z,48.87
2019-05-18T23:32:44.808Z,45.47
2019-05-18T23:35:14.189Z,44.90
2019-05-18T23:37:43.570Z,45.77
2019-05-18T23:40:13.763Z,45.60
2019-05-18T23:42:43.138Z,47.60
2019-05-18T23:45:12.924Z,49.93
2019-05-18T23:47:42.311Z,46.10
2019-05-18T23:50:12.198Z,42.73
2019-05-18T23:52:41.584Z,44.80
2019-05-18T23:55:11.471Z,47.77
2019-05-18T23:57:40.858Z,49.97
